A- A+ FrançaisEnglishEspañol中国

最近的 RPLL ManilaFMME AntsirabeLFBT Tarbes-Lourdes-PyrénéesEGLL London HeathrowVABB BombaySVMC Maracaibo

飞行员的航空天气,使用METAR(气象机场报告)进行的飞行准备和TAF(终端机场预报:针对以下情况的短期天气预报)航空)。 以及其他资源,例如VAC(目视进近图)和NOTAM(通知飞行员)以进行预试飞行.

METAR, TAF, VAC, NOTAM Fort Norman机场 (加拿大) / OACI CZFN/ IATA ZFN

Fort Norman机场的高度为101 m = 331 ft. 它位于附近 Tulita (加拿大). 可提供5天天气预报 Tulita 位于 4.2 km.

跑道

METAR Fort Norman机场的 - CZFN

CZFN 022200Z 28004KT 250V320 2SM -SN OVC042 M20/M24 A2995 RMK SC8 SLP157

Fort Norman机场METAR解码 (加拿大)

CZFN机场发行的METAR日期2020年01月02日至22:00 GMT, 警告:此METAR已过期, 已于 90 天 16 小时 44 分钟.

可见度为3.2 km = 2 sm.

温度为-20°C = -4 °F 露点为-24°C = -11 °F 。 这相当于70%的相对湿度。.

QNH是1014 hPa = 29.94 inHg

的风4 kt = 7 km/h, 风向为280°.

云:多云4200 ft = 1280 m.

光雪

备注 SC8 SLP157

TAF Fort Norman机场的 - CZFN

没有TAF

附近的机场Fort Norman

Tulita的一般天气5天预报 (4.2 km)

CYVQ Norman Wells机场 (71 km)CYWJ Deline机场 (106 km)CYGH Fort Good Hope机场 (205 km)CYWY Wrigley机场 (216 km)CYVL Tommy Kochon机场 (236 km)CYRA Rae Lakes机场 (405 km)CYFS Fort Simpson机场 (411 km)

Fort Norman机场的NOTAM

提供的NOTAM不能保证其时事性。 在将其用于飞行准备或在飞行期间使用之前,飞行员是唯一负责验证其有效性的人员。

没有通知

数据源